Time;durP1;ratioP1;P1;durP2;ratioP2;P2;SDS_P1;SDS_P2;PMS_P1;PMS_P2;Temp;Humidity;BMP_temperature;BMP_pressure;BME280_temperature;BME280_humidity;BME280_pressure;Samples;Min_cycle;Max_cycle;Signal;HPM_P1;HPM_P2
2021/07/29 00:00:32;;;;;;;5.40;2.50;;;18.10;99.90;;;;;;5070264;28;20156;-81
2021/07/29 00:03:02;;;;;;;4.73;2.30;;;18.00;99.90;;;;;;5094112;28;20175;-80
2021/07/29 00:05:30;;;;;;;7.20;2.70;;;18.00;99.90;;;;;;5081481;28;20165;-79
2021/07/29 00:07:56;;;;;;;4.83;2.10;;;18.00;1.00;;;;;;5083911;28;20180;-79
2021/07/29 00:10:22;;;;;;;6.47;2.30;;;18.00;1.00;;;;;;5087179;28;20180;-79
2021/07/29 00:12:48;;;;;;;7.30;2.33;;;18.00;1.00;;;;;;5075607;28;20216;-80
2021/07/29 00:15:16;;;;;;;8.80;2.53;;;17.90;1.00;;;;;;5087969;28;20651;-79
2021/07/29 00:20:13;;;;;;;5.77;2.60;;;17.90;1.00;;;;;;5074010;28;20249;-80
2021/07/29 00:22:43;;;;;;;5.13;2.13;;;18.00;1.00;;;;;;5089688;28;20305;-81
2021/07/29 00:25:12;;;;;;;7.80;2.80;;;17.80;99.90;;;;;;5075783;28;20189;-80
2021/07/29 00:27:39;;;;;;;6.13;2.43;;;17.80;99.90;;;;;;5084799;28;20244;-80
2021/07/29 00:30:06;;;;;;;7.80;2.73;;;17.80;99.90;;;;;;5084309;28;20184;-81
2021/07/29 00:32:32;;;;;;;5.33;2.10;;;17.80;99.90;;;;;;5078818;28;20207;-80
2021/07/29 00:34:58;;;;;;;7.17;2.60;;;17.80;99.90;;;;;;5087984;28;20661;-80
2021/07/29 00:37:24;;;;;;;9.63;3.13;;;17.80;99.90;;;;;;5072954;28;20255;-79
2021/07/29 00:39:50;;;;;;;4.97;2.50;;;17.70;99.90;;;;;;5072692;28;20212;-80
2021/07/29 00:42:15;;;;;;;5.50;2.20;;;17.80;99.90;;;;;;5086085;28;20180;-81
2021/07/29 00:44:41;;;;;;;5.53;2.30;;;17.70;99.90;;;;;;5076517;28;20209;-80
2021/07/29 00:47:07;;;;;;;6.33;2.37;;;17.70;99.90;;;;;;5088048;28;20169;-80
2021/07/29 00:49:36;;;;;;;6.67;2.83;;;17.60;99.90;;;;;;5081408;28;20171;-79
2021/07/29 00:52:02;;;;;;;6.23;2.40;;;17.50;99.90;;;;;;5085371;28;20196;-80
2021/07/29 00:54:29;;;;;;;9.00;2.83;;;17.50;1.00;;;;;;5091368;28;20177;-80
2021/07/29 00:56:55;;;;;;;5.17;2.70;;;17.60;1.00;;;;;;5083461;28;20181;-79
2021/07/29 00:59:21;;;;;;;5.87;2.63;;;17.60;99.90;;;;;;5095645;28;20205;-79
2021/07/29 01:01:47;;;;;;;4.33;2.17;;;17.60;99.90;;;;;;5087667;28;20194;-79
2021/07/29 01:04:13;;;;;;;7.93;2.40;;;17.50;1.00;;;;;;5084010;28;20183;-80
2021/07/29 01:06:39;;;;;;;4.33;2.00;;;17.50;1.00;;;;;;5088475;28;20176;-80
2021/07/29 01:09:09;;;;;;;4.97;2.40;;;17.40;1.00;;;;;;5075426;28;20229;-79
2021/07/29 01:11:36;;;;;;;7.00;2.20;;;17.40;1.00;;;;;;5085570;28;20188;-80
2021/07/29 01:14:02;;;;;;;3.57;2.20;;;17.40;1.00;;;;;;5083273;28;20179;-79
2021/07/29 01:16:28;;;;;;;8.83;2.70;;;17.40;1.00;;;;;;5077993;28;20247;-80
2021/07/29 01:18:55;;;;;;;5.83;2.33;;;17.40;1.00;;;;;;5076863;28;20259;-79
2021/07/29 01:21:20;;;;;;;3.73;2.10;;;17.50;1.00;;;;;;5077451;28;20242;-80
2021/07/29 01:23:46;;;;;;;7.20;2.77;;;17.40;1.00;;;;;;5083627;28;20653;-80
2021/07/29 01:26:11;;;;;;;6.53;2.40;;;17.40;1.00;;;;;;5084359;28;20179;-80
2021/07/29 01:28:38;;;;;;;5.57;2.67;;;17.50;1.00;;;;;;5076936;28;20193;-79
2021/07/29 01:31:03;;;;;;;8.13;2.43;;;17.40;1.00;;;;;;5087738;28;20172;-81
2021/07/29 01:33:30;;;;;;;7.33;2.73;;;17.50;1.00;;;;;;5078099;28;20219;-80
2021/07/29 01:35:56;;;;;;;9.87;3.10;;;17.40;1.00;;;;;;5082138;28;20169;-80
2021/07/29 01:38:21;;;;;;;8.70;2.67;;;17.30;1.00;;;;;;5078033;28;20674;-80
2021/07/29 01:40:47;;;;;;;5.70;2.37;;;17.40;1.00;;;;;;5088797;28;20187;-80
2021/07/29 01:43:12;;;;;;;5.37;2.10;;;17.40;1.00;;;;;;5076167;28;20608;-80
2021/07/29 01:45:38;;;;;;;9.23;2.97;;;17.40;1.00;;;;;;5084501;28;20177;-80
2021/07/29 01:48:04;;;;;;;7.13;2.70;;;17.40;1.00;;;;;;5082905;28;20179;-80
2021/07/29 01:50:30;;;;;;;5.47;2.50;;;17.30;1.00;;;;;;5077489;28;20528;-79
2021/07/29 01:52:55;;;;;;;7.17;2.33;;;17.30;1.00;;;;;;5087320;28;20214;-80
2021/07/29 01:55:23;;;;;;;7.37;2.77;;;17.30;1.00;;;;;;5077224;28;20266;-80
2021/07/29 01:57:49;;;;;;;6.90;2.70;;;17.30;1.00;;;;;;5083458;28;20271;-80
2021/07/29 02:00:15;;;;;;;8.00;2.57;;;17.30;1.00;;;;;;5084612;28;20215;-79
2021/07/29 02:02:41;;;;;;;5.27;2.47;;;17.30;1.00;;;;;;5075823;28;20172;-79
2021/07/29 02:05:07;;;;;;;6.63;2.40;;;17.20;1.00;;;;;;5088805;28;20183;-83
2021/07/29 02:07:32;;;;;;;7.00;2.27;;;17.20;1.00;;;;;;5078656;28;20178;-80
2021/07/29 02:09:58;;;;;;;7.03;2.33;;;17.30;1.00;;;;;;5081919;28;20255;-80
2021/07/29 02:12:24;;;;;;;10.40;2.47;;;17.30;1.00;;;;;;5085711;28;20245;-80
2021/07/29 02:14:50;;;;;;;5.00;2.00;;;17.30;1.00;;;;;;5074492;28;20186;-80
2021/07/29 02:17:20;;;;;;;6.17;2.17;;;17.30;1.00;;;;;;5087498;28;20255;-81
2021/07/29 02:19:45;;;;;;;6.17;2.30;;;17.40;1.00;;;;;;5080644;28;20659;-80
2021/07/29 02:22:11;;;;;;;7.57;2.47;;;17.30;1.00;;;;;;5083354;28;20230;-79
2021/07/29 02:24:37;;;;;;;5.67;2.33;;;17.30;1.00;;;;;;5090736;28;20205;-78
2021/07/29 02:27:03;;;;;;;5.97;2.43;;;17.20;1.00;;;;;;5078242;28;20180;-79
2021/07/29 02:29:28;;;;;;;6.33;2.73;;;17.20;1.00;;;;;;5088072;28;20656;-79
2021/07/29 02:31:54;;;;;;;6.27;2.20;;;17.30;1.00;;;;;;5085413;28;20255;-80
2021/07/29 02:34:19;;;;;;;8.30;2.60;;;17.20;1.00;;;;;;5081160;28;20188;-79
2021/07/29 02:36:45;;;;;;;4.13;2.43;;;17.10;1.00;;;;;;5078511;28;20171;-78
2021/07/29 02:39:11;;;;;;;8.43;2.27;;;17.20;1.00;;;;;;5097185;28;20225;-80
2021/07/29 02:41:37;;;;;;;6.77;2.60;;;17.10;1.00;;;;;;5102570;28;20172;-78
2021/07/29 02:44:04;;;;;;;6.07;2.30;;;17.10;1.00;;;;;;5098087;28;20178;-78
2021/07/29 02:46:29;;;;;;;5.43;2.50;;;17.10;1.00;;;;;;5092611;28;20168;-79
2021/07/29 02:48:55;;;;;;;8.17;2.63;;;17.00;1.00;;;;;;5098371;28;20215;-80
2021/07/29 02:51:21;;;;;;;6.07;2.30;;;17.00;1.00;;;;;;5081699;28;20605;-79
2021/07/29 02:53:46;;;;;;;6.67;2.63;;;17.10;1.00;;;;;;5086976;28;20268;-78
2021/07/29 02:56:12;;;;;;;7.33;2.37;;;17.00;1.00;;;;;;5086902;28;20647;-81
2021/07/29 02:58:38;;;;;;;5.03;2.60;;;16.90;1.00;;;;;;5095120;28;20551;-80
2021/07/29 03:01:04;;;;;;;6.00;2.20;;;17.00;1.00;;;;;;5074438;28;20323;-79
2021/07/29 03:03:30;;;;;;;6.87;2.43;;;16.90;1.00;;;;;;5079666;28;20664;-79
2021/07/29 03:05:56;;;;;;;8.20;2.73;;;17.00;1.00;;;;;;5084429;28;20173;-80
2021/07/29 03:08:22;;;;;;;7.67;2.53;;;16.80;1.00;;;;;;5088000;28;20179;-78
2021/07/29 03:10:49;;;;;;;8.40;2.87;;;16.70;1.00;;;;;;5078005;28;20524;-79
2021/07/29 03:13:15;;;;;;;6.17;2.80;;;16.70;1.00;;;;;;5090081;28;20204;-79
2021/07/29 03:15:41;;;;;;;10.23;2.93;;;16.70;1.00;;;;;;5082132;28;20172;-80
2021/07/29 03:18:07;;;;;;;5.00;2.30;;;16.80;1.00;;;;;;5082818;28;20260;-78
2021/07/29 03:20:33;;;;;;;6.67;2.73;;;16.80;1.00;;;;;;5089292;28;20587;-78
2021/07/29 03:22:58;;;;;;;6.27;2.20;;;16.70;1.00;;;;;;5077728;28;20523;-81
2021/07/29 03:25:24;;;;;;;13.37;2.80;;;16.80;1.00;;;;;;5088682;28;20188;-78
2021/07/29 03:27:50;;;;;;;8.90;2.83;;;16.60;1.00;;;;;;5083056;28;20258;-79
2021/07/29 03:30:16;;;;;;;8.03;2.60;;;16.50;1.00;;;;;;5084968;28;20168;-76
2021/07/29 03:32:42;;;;;;;7.37;2.40;;;16.60;1.00;;;;;;5114285;28;20247;-79
2021/07/29 03:35:08;;;;;;;7.50;2.83;;;16.60;1.00;;;;;;5098539;28;20175;-78
2021/07/29 03:37:33;;;;;;;8.80;3.17;;;16.40;1.00;;;;;;5101765;28;20214;-78
2021/07/29 03:40:04;;;;;;;8.57;2.70;;;16.40;1.00;;;;;;5091666;28;20180;-79
2021/07/29 03:42:36;;;;;;;9.13;2.67;;;16.40;1.00;;;;;;5094966;28;20167;-80
2021/07/29 03:45:02;;;;;;;8.83;2.77;;;16.50;1.00;;;;;;5095491;28;20148;-78
2021/07/29 03:47:28;;;;;;;12.10;2.63;;;16.30;1.00;;;;;;5083242;28;20198;-78
2021/07/29 03:49:57;;;;;;;11.00;2.70;;;16.30;1.00;;;;;;5095059;28;20632;-79
2021/07/29 03:55:46;;;;;;;7.17;2.50;;;16.20;1.00;;;;;;5101748;28;20182;-79
2021/07/29 03:58:12;;;;;;;8.10;2.53;;;16.20;1.00;;;;;;5088072;28;20187;-78
2021/07/29 04:00:39;;;;;;;8.23;2.60;;;16.40;1.00;;;;;;5099633;28;20176;-79
2021/07/29 04:03:06;;;;;;;9.67;2.70;;;16.30;1.00;;;;;;5087314;28;20163;-77
2021/07/29 04:05:32;;;;;;;8.43;2.90;;;16.30;1.00;;;;;;5090087;28;20168;-79
2021/07/29 04:07:57;;;;;;;11.67;2.70;;;16.20;1.00;;;;;;5084479;28;20654;-78
2021/07/29 04:10:23;;;;;;;8.80;2.63;;;16.10;1.00;;;;;;5083111;28;20203;-78
2021/07/29 04:12:48;;;;;;;9.67;2.60;;;16.10;1.00;;;;;;5103263;28;20236;-79
2021/07/29 04:15:14;;;;;;;10.13;3.23;;;16.20;1.00;;;;;;5100465;28;20184;-78
2021/07/29 04:17:40;;;;;;;9.10;2.40;;;16.10;1.00;;;;;;5104851;28;20188;-80
2021/07/29 04:20:07;;;;;;;6.33;2.57;;;16.10;1.00;;;;;;5091634;28;20180;-79
2021/07/29 04:22:32;;;;;;;9.83;2.63;;;16.10;1.00;;;;;;5083556;28;20194;-80
2021/07/29 04:25:00;;;;;;;6.77;2.57;;;16.10;1.00;;;;;;5079746;28;20659;-80
2021/07/29 04:27:29;;;;;;;9.63;2.57;;;16.10;1.00;;;;;;5074099;28;20180;-80
2021/07/29 04:30:15;;;;;;;8.80;2.93;;;16.00;1.00;;;;;;5075571;28;20168;-79
2021/07/29 04:32:40;;;;;;;7.30;2.80;;;16.00;1.00;;;;;;5073996;28;20574;-81
2021/07/29 04:35:06;;;;;;;10.07;3.03;;;16.00;1.00;;;;;;5091935;28;20179;-80
2021/07/29 04:37:33;;;;;;;10.67;3.00;;;16.00;1.00;;;;;;5079324;28;20211;-79
2021/07/29 04:39:58;;;;;;;6.80;2.50;;;16.00;1.00;;;;;;5082818;28;20171;-81
2021/07/29 04:42:24;;;;;;;8.13;3.17;;;16.10;1.00;;;;;;5078838;28;20172;-80
2021/07/29 04:44:50;;;;;;;8.10;3.00;;;16.10;1.00;;;;;;5087620;28;20167;-80
2021/07/29 04:47:16;;;;;;;9.57;2.63;;;16.10;1.00;;;;;;5075917;28;20508;-80
2021/07/29 04:49:43;;;;;;;8.10;3.03;;;16.30;1.00;;;;;;5084951;28;20172;-81
2021/07/29 04:52:08;;;;;;;11.23;3.27;;;16.10;1.00;;;;;;5072343;28;20781;-79
2021/07/29 04:54:34;;;;;;;5.90;2.80;;;16.10;1.00;;;;;;5088003;28;20179;-80
2021/07/29 04:57:00;;;;;;;5.87;2.67;;;16.20;1.00;;;;;;5074376;28;20188;-81
2021/07/29 04:59:25;;;;;;;10.00;3.30;;;16.20;1.00;;;;;;5087053;28;20182;-78
2021/07/29 05:01:52;;;;;;;6.60;3.23;;;16.30;1.00;;;;;;5082005;28;20183;-80
2021/07/29 05:04:18;;;;;;;7.53;2.80;;;16.30;1.00;;;;;;5080291;28;20179;-80
2021/07/29 05:06:43;;;;;;;5.53;2.67;;;16.40;1.00;;;;;;5089163;28;20542;-79
2021/07/29 05:09:09;;;;;;;7.33;2.63;;;16.20;1.00;;;;;;5076137;28;20175;-79
2021/07/29 05:11:38;;;;;;;9.03;2.47;;;16.30;1.00;;;;;;5084442;28;20218;-79
2021/07/29 05:14:04;;;;;;;8.83;2.80;;;16.30;1.00;;;;;;5083632;28;20264;-79
2021/07/29 05:16:30;;;;;;;9.50;3.37;;;16.40;1.00;;;;;;5078139;28;20177;-79
2021/07/29 05:18:55;;;;;;;6.93;2.90;;;16.50;1.00;;;;;;5077453;28;20172;-79
2021/07/29 05:21:21;;;;;;;12.27;2.57;;;16.40;1.00;;;;;;5082616;28;20172;-79
2021/07/29 05:23:48;;;;;;;8.10;3.07;;;16.30;1.00;;;;;;5073705;28;20201;-80
2021/07/29 05:26:17;;;;;;;8.80;2.70;;;16.30;1.00;;;;;;5067280;28;20263;-80
2021/07/29 05:28:44;;;;;;;8.87;3.13;;;16.30;1.00;;;;;;5088853;28;20228;-81
2021/07/29 05:31:13;;;;;;;6.93;2.60;;;16.30;1.00;;;;;;5074753;28;20182;-80
2021/07/29 05:33:39;;;;;;;9.60;2.90;;;16.40;1.00;;;;;;5084820;28;20226;-80
2021/07/29 05:36:06;;;;;;;7.83;2.87;;;16.40;1.00;;;;;;5083608;28;20798;-80
2021/07/29 05:38:32;;;;;;;10.20;3.10;;;16.50;1.00;;;;;;5076373;28;20283;-78
2021/07/29 05:41:02;;;;;;;6.97;2.57;;;16.40;1.00;;;;;;5074624;28;20635;-79
2021/07/29 05:43:28;;;;;;;7.97;2.83;;;16.40;1.00;;;;;;5085796;28;20176;-81
2021/07/29 05:45:53;;;;;;;10.40;3.00;;;16.40;1.00;;;;;;5081475;28;20186;-80
2021/07/29 05:48:19;;;;;;;11.50;2.60;;;16.40;1.00;;;;;;5079456;28;20164;-80
2021/07/29 05:50:46;;;;;;;9.27;2.80;;;16.40;1.00;;;;;;5087962;28;20644;-81
2021/07/29 05:53:11;;;;;;;8.97;2.53;;;16.50;1.00;;;;;;5075673;28;20195;-79
2021/07/29 05:55:37;;;;;;;9.90;2.83;;;16.60;1.00;;;;;;5087379;28;20178;-79
2021/07/29 05:58:03;;;;;;;8.47;2.70;;;16.60;1.00;;;;;;5087005;28;20183;-80
2021/07/29 06:00:28;;;;;;;9.37;3.03;;;16.70;1.00;;;;;;5080385;28;20550;-80
2021/07/29 06:02:54;;;;;;;12.07;2.80;;;16.70;1.00;;;;;;5092641;28;20179;-80
2021/07/29 06:05:20;;;;;;;9.03;2.77;;;16.70;1.00;;;;;;5081381;28;20160;-79
2021/07/29 06:07:46;;;;;;;6.83;2.43;;;16.60;1.00;;;;;;5087498;28;20240;-80
2021/07/29 06:10:11;;;;;;;8.40;2.87;;;16.80;1.00;;;;;;5088173;28;20178;-80
2021/07/29 06:12:37;;;;;;;9.63;2.90;;;16.80;1.00;;;;;;5080638;28;20618;-82
2021/07/29 06:15:05;;;;;;;8.57;2.87;;;16.70;1.00;;;;;;5092917;28;20171;-80
2021/07/29 06:17:33;;;;;;;7.33;2.67;;;16.70;1.00;;;;;;5080613;28;20231;-81
2021/07/29 06:20:05;;;;;;;9.27;2.87;;;16.80;1.00;;;;;;5074401;28;20176;-79
2021/07/29 06:22:31;;;;;;;8.97;2.67;;;16.80;1.00;;;;;;5089889;28;20156;-80
2021/07/29 06:24:58;;;;;;;5.77;2.23;;;16.80;1.00;;;;;;5078763;28;20192;-80
2021/07/29 06:27:24;;;;;;;10.00;2.40;;;16.90;1.00;;;;;;5089955;28;20179;-80
2021/07/29 06:29:50;;;;;;;8.80;3.00;;;17.00;1.00;;;;;;5084879;28;20186;-81
2021/07/29 06:32:16;;;;;;;6.57;2.70;;;16.90;1.00;;;;;;5081202;28;20203;-81
2021/07/29 06:34:41;;;;;;;8.20;2.70;;;16.90;1.00;;;;;;5091896;28;20241;-84
2021/07/29 06:37:07;;;;;;;8.97;2.97;;;17.00;1.00;;;;;;5078446;28;20512;-81
2021/07/29 06:39:32;;;;;;;8.73;2.83;;;17.10;1.00;;;;;;5077982;28;20175;-80
2021/07/29 06:41:58;;;;;;;9.50;3.10;;;17.20;1.00;;;;;;5085871;28;20218;-81
2021/07/29 06:44:24;;;;;;;10.63;3.37;;;17.30;1.00;;;;;;5081554;28;20691;-82
2021/07/29 06:46:50;;;;;;;8.20;3.40;;;17.30;1.00;;;;;;5092288;28;20171;-79
2021/07/29 06:49:16;;;;;;;10.30;2.83;;;17.30;1.00;;;;;;5079687;28;20207;-80
2021/07/29 06:51:42;;;;;;;10.03;3.17;;;17.40;1.00;;;;;;5085791;28;20187;-82
2021/07/29 06:54:07;;;;;;;12.43;2.90;;;17.50;1.00;;;;;;5085235;28;20634;-78
2021/07/29 06:56:33;;;;;;;6.47;3.03;;;17.50;99.90;;;;;;5080535;28;20184;-80
2021/07/29 06:58:59;;;;;;;12.07;3.20;;;17.70;99.90;;;;;;5092888;28;20172;-81
2021/07/29 07:01:25;;;;;;;13.10;3.13;;;17.60;99.90;;;;;;5081236;28;20179;-79
2021/07/29 07:03:52;;;;;;;9.23;2.80;;;17.70;99.90;;;;;;5085500;28;20200;-78
2021/07/29 07:06:17;;;;;;;10.23;3.53;;;17.80;74.70;;;;;;5086124;28;20171;-81
2021/07/29 07:08:43;;;;;;;8.33;2.93;;;17.80;1.00;;;;;;5079856;28;20652;-80
2021/07/29 07:11:16;;;;;;;9.97;3.03;;;17.90;1.00;;;;;;5091937;28;20241;-80
2021/07/29 07:13:43;;;;;;;6.77;2.57;;;18.00;1.00;;;;;;5083687;28;20559;-81
2021/07/29 07:16:13;;;;;;;10.07;2.53;;;18.00;1.00;;;;;;5084421;28;20666;-79
2021/07/29 07:18:39;;;;;;;12.43;3.20;;;18.10;1.00;;;;;;5079184;28;20208;-79
2021/07/29 07:21:06;;;;;;;12.93;3.23;;;18.10;1.00;;;;;;5077437;28;20160;-80
2021/07/29 07:23:33;;;;;;;13.70;3.37;;;18.10;1.00;;;;;;5088524;28;20203;-80
2021/07/29 07:25:58;;;;;;;8.57;2.87;;;18.20;99.90;;;;;;5087065;28;20567;-78
2021/07/29 07:28:24;;;;;;;10.83;3.17;;;18.20;99.90;;;;;;5090443;28;20187;-80
2021/07/29 07:30:49;;;;;;;10.63;3.00;;;18.00;1.00;;;;;;5100667;28;20232;-80
2021/07/29 07:33:15;;;;;;;9.93;2.80;;;17.90;99.90;;;;;;5091955;28;20222;-79
2021/07/29 07:35:44;;;;;;;5.37;2.80;;;18.00;1.00;;;;;;5102149;28;20217;-83
2021/07/29 07:38:10;;;;;;;8.60;3.27;;;18.10;1.00;;;;;;5090305;28;20258;-83
2021/07/29 07:40:36;;;;;;;9.63;3.13;;;18.00;99.90;;;;;;5092886;28;20261;-80
2021/07/29 07:43:03;;;;;;;9.80;3.20;;;18.00;1.00;;;;;;5078954;28;20176;-81
2021/07/29 07:45:30;;;;;;;8.50;3.30;;;17.90;99.90;;;;;;5089909;28;20223;-82
2021/07/29 07:47:56;;;;;;;8.13;3.30;;;17.80;99.90;;;;;;5085786;28;20684;-81
2021/07/29 07:50:21;;;;;;;9.97;3.27;;;17.90;1.00;;;;;;5085582;28;20231;-82
2021/07/29 07:52:47;;;;;;;11.90;3.60;;;18.10;99.90;;;;;;5111255;28;20179;-80
2021/07/29 07:55:13;;;;;;;10.53;2.90;;;18.10;1.00;;;;;;5097801;28;20664;-80
2021/07/29 07:57:38;;;;;;;8.93;2.87;;;18.10;1.00;;;;;;5088609;28;20278;-80
2021/07/29 08:00:05;;;;;;;8.80;3.43;;;18.20;1.00;;;;;;5093006;28;20527;-80
2021/07/29 08:02:31;;;;;;;10.03;2.97;;;18.30;50.90;;;;;;5095762;28;20181;-82
2021/07/29 08:04:57;;;;;;;7.27;2.90;;;18.40;99.90;;;;;;5091144;28;20160;-80
2021/07/29 08:07:22;;;;;;;9.27;2.77;;;18.40;1.00;;;;;;5093668;28;20225;-79
2021/07/29 08:09:51;;;;;;;10.20;3.00;;;18.30;1.00;;;;;;5094268;28;20539;-82
2021/07/29 08:12:17;;;;;;;9.23;3.10;;;18.40;1.00;;;;;;5096238;28;20282;-80
2021/07/29 08:14:43;;;;;;;10.90;3.17;;;18.50;99.90;;;;;;5095408;28;20248;-80
2021/07/29 08:17:08;;;;;;;7.97;3.20;;;18.80;59.50;;;;;;5077370;28;20532;-83
2021/07/29 08:19:34;;;;;;;9.20;3.10;;;19.10;1.00;;;;;;5074343;28;20612;-81
2021/07/29 08:22:01;;;;;;;10.23;3.13;;;19.20;1.00;;;;;;5083301;28;20174;-87
2021/07/29 08:24:27;;;;;;;8.67;2.63;;;19.40;99.90;;;;;;5078032;28;20192;-81
2021/07/29 08:26:52;;;;;;;11.33;3.30;;;19.40;99.90;;;;;;5089058;28;20187;-83
2021/07/29 08:29:18;;;;;;;8.60;3.03;;;19.40;99.90;;;;;;5078403;28;20522;-82
2021/07/29 08:31:43;;;;;;;11.63;2.87;;;19.40;99.90;;;;;;5085182;28;20172;-81
2021/07/29 08:34:09;;;;;;;10.93;3.00;;;19.30;99.90;;;;;;5085388;28;20286;-82
2021/07/29 08:36:35;;;;;;;7.33;2.80;;;19.30;99.90;;;;;;5081131;28;20203;-79
2021/07/29 08:39:00;;;;;;;11.73;2.77;;;19.30;99.90;;;;;;5083587;28;20666;-81
2021/07/29 08:41:26;;;;;;;11.23;3.17;;;19.40;99.90;;;;;;5081975;28;20258;-80
2021/07/29 08:43:52;;;;;;;7.20;2.57;;;19.50;99.90;;;;;;5091798;28;20257;-84
2021/07/29 08:46:19;;;;;;;10.70;3.10;;;19.60;99.90;;;;;;5074387;28;20270;-79
2021/07/29 08:48:50;;;;;;;10.67;2.90;;;19.60;99.90;;;;;;5073092;28;20183;-82
2021/07/29 08:51:19;;;;;;;6.00;2.77;;;19.60;99.90;;;;;;5077547;28;20628;-83
2021/07/29 08:53:47;;;;;;;6.77;2.70;;;19.40;99.90;;;;;;5093912;28;20201;-83
2021/07/29 08:56:18;;;;;;;10.20;2.70;;;19.30;99.90;;;;;;5072366;28;20272;-80
2021/07/29 08:58:44;;;;;;;10.10;2.83;;;19.30;99.90;;;;;;5053143;28;20215;-81
2021/07/29 09:01:12;;;;;;;6.50;3.00;;;19.40;99.90;;;;;;5052742;28;20169;-81
2021/07/29 09:03:39;;;;;;;10.60;3.17;;;19.50;99.90;;;;;;5066465;28;20179;-83
2021/07/29 09:06:06;;;;;;;13.60;3.33;;;19.60;99.90;;;;;;5068721;28;20234;-81
2021/07/29 09:08:45;;;;;;;9.37;2.97;;;19.70;99.90;;;;;;5052680;28;20687;-81
2021/07/29 09:11:36;;;;;;;6.30;2.60;;;19.50;99.90;;;;;;5058258;28;20169;-80
2021/07/29 09:14:13;;;;;;;10.47;2.90;;;19.70;99.90;;;;;;5064981;28;20207;-78
2021/07/29 09:16:56;;;;;;;7.03;2.67;;;19.70;22.70;;;;;;5061478;28;20173;-79
2021/07/29 09:19:40;;;;;;;6.83;2.30;;;19.80;1.00;;;;;;5072017;28;20650;-81
2021/07/29 09:22:12;;;;;;;8.13;2.57;;;19.90;1.00;;;;;;5065954;28;20551;-81
2021/07/29 09:25:01;;;;;;;4.83;1.90;;;19.90;1.00;;;;;;5059982;28;20244;-80
2021/07/29 09:27:36;;;;;;;6.50;2.70;;;19.70;1.00;;;;;;5056886;28;20183;-81
2021/07/29 09:30:14;;;;;;;6.77;2.47;;;19.60;1.00;;;;;;5058313;28;20172;-82
2021/07/29 09:33:15;;;;;;;9.63;2.83;;;19.50;1.00;;;;;;5063544;28;20698;-80
2021/07/29 09:35:45;;;;;;;6.40;2.83;;;19.60;1.00;;;;;;5056517;28;20273;-82
2021/07/29 09:38:32;;;;;;;8.70;2.80;;;19.90;1.00;;;;;;5062217;28;20166;-80
2021/07/29 09:41:03;;;;;;;8.10;2.17;;;20.20;1.00;;;;;;5072979;28;20177;-80
2021/07/29 09:43:31;;;;;;;8.43;2.40;;;20.40;1.00;;;;;;5067721;28;20190;-81
2021/07/29 09:45:59;;;;;;;9.00;2.50;;;20.60;1.00;;;;;;5070574;28;20176;-79
2021/07/29 09:48:25;;;;;;;6.50;2.77;;;20.70;1.00;;;;;;5075348;28;20182;-81
2021/07/29 09:50:55;;;;;;;8.37;2.60;;;20.90;1.00;;;;;;5058257;28;20172;-81
2021/07/29 09:53:23;;;;;;;6.20;2.50;;;20.90;1.00;;;;;;5067674;28;20262;-80
2021/07/29 09:55:49;;;;;;;5.97;2.13;;;20.80;1.00;;;;;;5070188;28;20202;-81
2021/07/29 09:58:15;;;;;;;5.70;2.20;;;20.70;1.00;;;;;;5075350;28;20191;-80
2021/07/29 10:00:42;;;;;;;4.87;2.30;;;20.60;1.00;;;;;;5067403;28;20198;-79
2021/07/29 10:03:09;;;;;;;5.87;2.27;;;20.40;1.00;;;;;;5058082;28;20291;-80
2021/07/29 10:05:50;;;;;;;5.50;2.40;;;20.50;1.00;;;;;;5074764;28;20174;-81
2021/07/29 10:08:27;;;;;;;5.07;2.20;;;20.70;1.00;;;;;;5056186;28;20168;-79
2021/07/29 10:10:52;;;;;;;6.93;2.57;;;20.80;1.00;;;;;;5070828;28;20702;-79
2021/07/29 10:13:19;;;;;;;6.67;2.20;;;20.80;1.00;;;;;;5064406;28;20279;-81
2021/07/29 10:15:46;;;;;;;6.40;2.33;;;20.60;1.00;;;;;;5054778;28;20208;-82
2021/07/29 10:18:13;;;;;;;11.70;3.30;;;20.30;1.00;;;;;;5057945;28;20210;-80
2021/07/29 10:20:42;;;;;;;7.03;2.50;;;20.30;1.00;;;;;;5074894;28;20184;-82
2021/07/29 10:23:13;;;;;;;9.00;2.50;;;20.50;1.00;;;;;;5074819;28;20169;-82
2021/07/29 10:26:03;;;;;;;8.33;2.63;;;20.50;1.00;;;;;;5057734;28;20223;-83
2021/07/29 10:28:35;;;;;;;8.97;2.93;;;20.70;1.00;;;;;;5056678;28;20196;-82
2021/07/29 10:31:02;;;;;;;6.47;2.50;;;20.60;1.00;;;;;;5056346;28;20177;-81
2021/07/29 10:33:29;;;;;;;8.40;2.43;;;20.50;1.00;;;;;;5054764;28;20212;-81
2021/07/29 10:35:56;;;;;;;6.93;2.50;;;20.50;1.00;;;;;;5074741;28;20201;-81
2021/07/29 10:38:51;;;;;;;6.13;2.53;;;20.60;1.00;;;;;;5069059;28;20751;-81
2021/07/29 10:41:22;;;;;;;6.13;2.20;;;20.50;1.00;;;;;;5070686;28;20268;-80
2021/07/29 10:43:48;;;;;;;7.27;2.50;;;20.50;1.00;;;;;;5054961;28;20165;-81
2021/07/29 10:46:14;;;;;;;7.03;2.20;;;20.50;1.00;;;;;;5054328;28;20170;-80
2021/07/29 10:48:47;;;;;;;7.20;2.40;;;20.60;1.00;;;;;;5056918;28;20643;-82
2021/07/29 10:51:24;;;;;;;6.53;2.40;;;20.80;1.00;;;;;;5059425;28;20174;-81
2021/07/29 10:53:57;;;;;;;7.57;2.40;;;21.00;1.00;;;;;;5054948;28;20210;-80
2021/07/29 10:56:24;;;;;;;6.57;2.60;;;21.30;1.00;;;;;;5056278;28;20228;-79
2021/07/29 10:58:53;;;;;;;8.20;2.70;;;21.50;1.00;;;;;;5055177;28;20172;-80
2021/07/29 11:01:19;;;;;;;6.83;2.27;;;21.60;1.00;;;;;;5055228;28;20168;-81
2021/07/29 11:03:54;;;;;;;9.03;3.27;;;21.60;99.90;;;;;;5054802;28;20157;-80
2021/07/29 11:06:38;;;;;;;5.67;2.30;;;21.60;1.00;;;;;;5054893;28;20185;-81
2021/07/29 11:09:14;;;;;;;7.63;2.70;;;21.50;1.00;;;;;;5069292;28;20198;-81
2021/07/29 11:11:41;;;;;;;6.20;2.40;;;21.40;1.00;;;;;;5069630;28;20511;-80
2021/07/29 11:14:07;;;;;;;5.73;2.23;;;21.30;1.00;;;;;;5072484;28;20675;-79
2021/07/29 11:16:34;;;;;;;8.93;2.90;;;21.10;1.00;;;;;;5054435;28;20728;-79
2021/07/29 11:19:02;;;;;;;8.03;2.50;;;20.90;1.00;;;;;;5062871;28;20502;-79
2021/07/29 11:21:27;;;;;;;7.97;2.47;;;20.80;1.00;;;;;;5055103;28;20171;-80
2021/07/29 11:23:53;;;;;;;6.03;2.13;;;20.90;1.00;;;;;;5055285;28;20708;-81
2021/07/29 11:26:19;;;;;;;7.50;2.30;;;20.90;1.00;;;;;;5074167;28;20541;-79
2021/07/29 11:29:06;;;;;;;7.53;2.90;;;20.80;1.00;;;;;;5073762;28;20648;-81
2021/07/29 11:31:32;;;;;;;7.03;2.27;;;21.20;1.00;;;;;;5065645;28;20194;-81
2021/07/29 11:33:59;;;;;;;11.93;2.83;;;21.20;1.00;;;;;;5071626;28;20205;-80
2021/07/29 11:36:25;;;;;;;6.90;2.80;;;21.00;1.00;;;;;;5073004;28;20173;-79
2021/07/29 11:39:00;;;;;;;6.57;2.77;;;21.00;1.00;;;;;;5073308;28;20169;-76
2021/07/29 11:41:26;;;;;;;6.93;2.50;;;21.20;1.00;;;;;;5064535;28;20238;-80
2021/07/29 11:43:59;;;;;;;6.43;2.37;;;21.40;1.00;;;;;;5072431;28;20652;-78
2021/07/29 11:46:25;;;;;;;5.83;1.80;;;21.30;99.90;;;;;;5070781;28;20311;-79
2021/07/29 11:49:04;;;;;;;6.73;1.97;;;21.20;99.90;;;;;;5073829;28;20211;-79
2021/07/29 11:51:30;;;;;;;4.90;1.97;;;21.00;99.90;;;;;;5073102;28;20653;-80
2021/07/29 11:53:55;;;;;;;6.20;2.00;;;20.80;1.00;;;;;;5065494;28;20274;-81
2021/07/29 11:56:21;;;;;;;6.97;2.40;;;20.80;1.00;;;;;;5073894;28;20186;-78
2021/07/29 11:59:01;;;;;;;7.97;2.50;;;21.00;1.00;;;;;;5077015;28;20189;-82
2021/07/29 12:01:27;;;;;;;7.13;1.87;;;21.10;1.00;;;;;;5053418;28;20177;-79
2021/07/29 12:03:57;;;;;;;6.87;2.30;;;21.10;1.00;;;;;;5059694;28;20166;-80
2021/07/29 12:06:25;;;;;;;6.33;2.67;;;21.10;1.00;;;;;;5071014;28;20536;-80
2021/07/29 12:08:52;;;;;;;7.97;2.77;;;21.00;1.00;;;;;;5068811;28;20205;-79
2021/07/29 12:11:19;;;;;;;6.10;2.43;;;21.50;1.00;;;;;;5075165;28;20194;-79
2021/07/29 12:13:45;;;;;;;6.47;2.50;;;21.60;1.00;;;;;;5076267;28;20198;-80
2021/07/29 12:16:12;;;;;;;8.60;2.50;;;21.70;1.00;;;;;;5060959;28;20191;-78
2021/07/29 12:18:38;;;;;;;6.60;2.37;;;21.70;99.90;;;;;;5060156;28;20199;-78
2021/07/29 12:21:07;;;;;;;6.37;2.37;;;21.80;99.90;;;;;;5057437;28;20169;-79
2021/07/29 12:23:33;;;;;;;4.33;2.27;;;21.90;99.90;;;;;;5056016;28;20672;-79
2021/07/29 12:26:14;;;;;;;7.20;2.37;;;21.90;99.90;;;;;;5059808;28;20176;-80
2021/07/29 12:28:42;;;;;;;7.93;2.53;;;22.00;99.90;;;;;;5068282;28;20176;-81
2021/07/29 12:31:28;;;;;;;6.87;2.53;;;22.20;99.90;;;;;;5060461;28;20663;-78
2021/07/29 12:33:58;;;;;;;8.40;2.87;;;22.00;99.90;;;;;;5053081;28;20523;-80
2021/07/29 12:36:39;;;;;;;9.50;2.80;;;21.60;99.90;;;;;;5053353;28;20178;-80
2021/07/29 12:39:05;;;;;;;8.07;2.70;;;21.10;99.90;;;;;;5052802;28;20176;-80
2021/07/29 12:41:35;;;;;;;8.57;2.73;;;21.60;99.90;;;;;;5055616;28;20185;-80
2021/07/29 12:44:16;;;;;;;6.73;2.70;;;21.80;99.90;;;;;;5069350;28;20172;-80
2021/07/29 12:46:43;;;;;;;8.47;2.43;;;21.90;99.90;;;;;;5059080;28;20172;-80
2021/07/29 12:49:10;;;;;;;7.10;2.70;;;22.10;99.90;;;;;;5069485;28;20235;-79
2021/07/29 12:51:49;;;;;;;7.67;2.93;;;22.10;99.90;;;;;;5059187;28;20188;-78
2021/07/29 12:54:17;;;;;;;7.80;2.30;;;21.80;99.90;;;;;;5054164;28;20211;-78
2021/07/29 12:56:44;;;;;;;6.73;2.53;;;21.70;99.90;;;;;;5072167;28;20253;-80
2021/07/29 12:59:10;;;;;;;6.67;2.27;;;21.70;99.90;;;;;;5073332;28;20635;-78
2021/07/29 13:01:37;;;;;;;5.80;2.70;;;21.80;99.90;;;;;;5068697;28;20602;-78